createdAt,value
2022-07-31T00:00:27.837Z,101631.13
2022-07-31T00:02:56.582Z,101627.88
2022-07-31T00:05:25.516Z,101620.97
2022-07-31T00:07:55.581Z,101619.34
2022-07-31T00:10:22.982Z,101618.66
2022-07-31T00:12:52.963Z,101624.13
2022-07-31T00:15:20.675Z,101614.44
2022-07-31T00:17:48.838Z,101611.06
2022-07-31T00:20:17.986Z,101613.75
2022-07-31T00:22:48.714Z,101617.47
2022-07-31T00:25:17.857Z,101614.03
2022-07-31T00:27:45.157Z,101603.47
2022-07-31T00:30:13.469Z,101603.47
2022-07-31T00:32:42.035Z,101599.84
2022-07-31T00:35:14.147Z,101597.19
2022-07-31T00:37:44.239Z,101596.22
2022-07-31T00:40:15.788Z,101601.50
2022-07-31T00:42:43.806Z,101605.03
2022-07-31T00:45:13.978Z,101605.13
2022-07-31T00:47:41.882Z,101598.06
2022-07-31T00:50:10.920Z,101593.66
2022-07-31T00:52:38.638Z,101591.09
2022-07-31T00:55:06.581Z,101590.31
2022-07-31T00:57:33.628Z,101590.47
2022-07-31T01:00:01.842Z,101583.31
2022-07-31T01:02:29.486Z,101580.81
2022-07-31T01:04:56.618Z,101590.56
2022-07-31T01:07:23.616Z,101594.38
2022-07-31T01:09:53.735Z,101588.16
2022-07-31T01:12:36.045Z,101591.13
2022-07-31T01:15:10.578Z,101590.34
2022-07-31T01:17:40.785Z,101593.19
2022-07-31T01:20:09.071Z,101582.84
2022-07-31T01:23:16.290Z,101578.59
2022-07-31T01:26:49.433Z,101589.66
2022-07-31T01:29:37.503Z,101584.56
2022-07-31T01:32:18.466Z,101579.53
2022-07-31T01:34:54.605Z,101586.72
2022-07-31T01:37:30.137Z,101584.91
2022-07-31T01:40:11.807Z,101576.97
2022-07-31T01:42:46.566Z,101574.28
2022-07-31T01:45:19.041Z,101579.53
2022-07-31T01:47:49.592Z,101574.28
2022-07-31T01:50:43.548Z,101564.81
2022-07-31T01:53:10.355Z,101562.22
2022-07-31T01:56:02.022Z,101549.03
2022-07-31T01:58:36.847Z,101547.56
2022-07-31T02:01:12.476Z,101554.91
2022-07-31T02:03:45.578Z,101554.47
2022-07-31T02:06:19.163Z,101548.75
2022-07-31T02:08:50.366Z,101549.03
2022-07-31T02:11:20.681Z,101554.53
2022-07-31T02:13:49.886Z,101537.75
2022-07-31T02:16:20.490Z,101540.47
2022-07-31T02:18:55.364Z,101546.72
2022-07-31T02:21:26.484Z,101550.31
2022-07-31T02:23:54.230Z,101549.44
2022-07-31T02:26:24.254Z,101553.78
2022-07-31T02:28:53.502Z,101552.91
2022-07-31T02:31:23.406Z,101565.22
2022-07-31T02:33:52.542Z,101559.81
2022-07-31T02:36:23.339Z,101561.59
2022-07-31T02:38:52.901Z,101548.19
2022-07-31T02:41:21.542Z,101560.41
2022-07-31T02:43:49.672Z,101562.13
2022-07-31T02:46:23.477Z,101549.72
2022-07-31T02:48:52.328Z,101549.66
2022-07-31T02:51:23.798Z,101550.50
2022-07-31T02:53:51.590Z,101532.72
2022-07-31T02:56:22.423Z,101542.47
2022-07-31T02:58:49.717Z,101551.53
2022-07-31T03:01:26.654Z,101547.28
2022-07-31T03:03:55.883Z,101550.84
2022-07-31T03:06:22.947Z,101556.94
2022-07-31T03:08:50.093Z,101551.59
2022-07-31T03:11:21.841Z,101547.13
2022-07-31T03:13:50.557Z,101544.47
2022-07-31T03:16:18.034Z,101541.94
2022-07-31T03:18:47.193Z,101541.16
2022-07-31T03:21:14.983Z,101536.81
2022-07-31T03:23:42.654Z,101546.03
2022-07-31T03:26:19.154Z,101548.94
2022-07-31T03:28:49.491Z,101545.81
2022-07-31T03:31:16.786Z,101539.06
2022-07-31T03:33:43.908Z,101527.69
2022-07-31T03:36:11.010Z,101528.72
2022-07-31T03:38:41.767Z,101539.22
2022-07-31T03:41:22.853Z,101540.34
2022-07-31T03:43:50.889Z,101529.66
2022-07-31T03:46:23.598Z,101538.50
2022-07-31T03:48:52.594Z,101542.66
2022-07-31T03:51:20.755Z,101539.00
2022-07-31T03:53:49.073Z,101535.38
2022-07-31T03:56:37.578Z,101540.66
2022-07-31T03:59:04.906Z,101539.78
2022-07-31T04:01:58.212Z,101536.25
2022-07-31T04:04:34.698Z,101542.38
2022-07-31T04:07:05.749Z,101541.50
2022-07-31T04:09:33.051Z,101544.06
2022-07-31T04:12:00.696Z,101544.97
2022-07-31T04:14:28.006Z,101538.66
2022-07-31T04:16:55.098Z,101539.47
2022-07-31T04:19:23.924Z,101542.03
2022-07-31T04:21:51.126Z,101544.88
2022-07-31T04:24:18.429Z,101544.88
2022-07-31T04:26:56.062Z,101542.28
2022-07-31T04:29:28.768Z,101543.31
2022-07-31T04:31:56.834Z,101549.59
2022-07-31T04:34:31.695Z,101546.06
2022-07-31T04:36:58.936Z,101548.66
2022-07-31T04:39:26.163Z,101544.06
2022-07-31T04:41:53.308Z,101547.47
2022-07-31T04:44:24.930Z,101551.78
2022-07-31T04:47:02.719Z,101550.75
2022-07-31T04:49:34.299Z,101548.75
2022-07-31T04:52:05.239Z,101548.69
2022-07-31T04:54:33.678Z,101552.06
2022-07-31T04:57:00.865Z,101552.13
2022-07-31T04:59:59.913Z,101552.13
2022-07-31T05:02:15.750Z,101564.63
2022-07-31T05:04:42.913Z,101555.03
2022-07-31T05:07:09.935Z,101558.59
2022-07-31T05:09:37.000Z,101556.88
2022-07-31T05:12:08.195Z,101558.44
2022-07-31T05:14:35.571Z,101556.34
2022-07-31T05:17:02.705Z,101556.88
2022-07-31T05:19:46.892Z,101544.47
2022-07-31T05:22:35.194Z,101550.41
2022-07-31T05:25:20.855Z,101543.00
2022-07-31T05:27:50.099Z,101538.25
2022-07-31T05:30:17.632Z,101536.09
2022-07-31T05:32:58.434Z,101541.16
2022-07-31T05:35:25.802Z,101543.56
2022-07-31T05:37:53.143Z,101537.28
2022-07-31T05:40:30.299Z,101540.91
2022-07-31T05:43:17.279Z,101539.13
2022-07-31T05:46:06.185Z,101538.91
2022-07-31T05:48:33.683Z,101543.50
2022-07-31T05:51:05.270Z,101534.63
2022-07-31T05:53:32.859Z,101528.47
2022-07-31T05:56:18.288Z,101524.28
2022-07-31T05:58:49.687Z,101533.25
2022-07-31T06:01:17.073Z,101534.97
2022-07-31T06:03:52.302Z,101538.84
2022-07-31T06:06:33.634Z,101544.63
2022-07-31T06:09:04.541Z,101534.38
2022-07-31T06:11:36.101Z,101552.91
2022-07-31T06:14:03.466Z,101548.44
2022-07-31T06:16:50.189Z,101551.13
2022-07-31T06:19:18.675Z,101550.91
2022-07-31T06:21:52.076Z,101552.50
2022-07-31T06:24:22.400Z,101558.41
2022-07-31T06:26:49.733Z,101555.47
2022-07-31T06:29:17.064Z,101551.81
2022-07-31T06:31:44.127Z,101561.34
2022-07-31T06:34:11.247Z,101562.13
2022-07-31T06:36:41.818Z,101566.69
2022-07-31T06:39:13.047Z,101564.03
2022-07-31T06:41:58.896Z,101559.47
2022-07-31T06:44:31.551Z,101570.00
2022-07-31T06:47:19.677Z,101554.34
2022-07-31T06:50:09.105Z,101566.25
2022-07-31T06:52:39.399Z,101554.44
2022-07-31T06:55:07.836Z,101555.91
2022-07-31T06:57:35.089Z,101551.94
2022-07-31T07:00:07.296Z,101546.09
2022-07-31T07:02:47.347Z,101548.53
2022-07-31T07:05:15.888Z,101549.59
2022-07-31T07:07:46.192Z,101533.75
2022-07-31T07:10:14.568Z,101533.38
2022-07-31T07:13:00.810Z,101535.41
2022-07-31T07:15:32.702Z,101535.78
2022-07-31T07:18:00.892Z,101540.28
2022-07-31T07:20:34.975Z,101539.56
2022-07-31T07:23:02.379Z,101538.97
2022-07-31T07:25:37.011Z,101533.88
2022-07-31T07:28:06.820Z,101543.06
2022-07-31T07:30:35.362Z,101538.88
2022-07-31T07:33:05.444Z,101540.88
2022-07-31T07:35:34.256Z,101537.06
2022-07-31T07:38:07.497Z,101533.81
2022-07-31T07:40:37.137Z,101530.28
2022-07-31T07:43:04.324Z,101526.06
2022-07-31T07:45:35.452Z,101524.22
2022-07-31T07:48:07.064Z,101519.97
2022-07-31T07:51:04.174Z,101523.56
2022-07-31T07:53:37.790Z,101528.84
2022-07-31T07:56:30.707Z,101520.81
2022-07-31T07:59:18.928Z,101516.63
2022-07-31T08:02:06.201Z,101529.84
2022-07-31T08:04:34.335Z,101526.28
2022-07-31T08:07:01.693Z,101528.69
2022-07-31T08:09:36.227Z,101531.94
2022-07-31T08:12:21.872Z,101532.78
2022-07-31T08:15:08.308Z,101532.72
2022-07-31T08:17:44.234Z,101523.59
2022-07-31T08:20:12.035Z,101515.66
2022-07-31T08:22:39.735Z,101521.47
2022-07-31T08:25:07.319Z,101519.78
2022-07-31T08:27:41.708Z,101518.72
2022-07-31T08:30:10.496Z,101518.53
2022-07-31T08:32:38.614Z,101505.69
2022-07-31T08:35:06.636Z,101505.94
2022-07-31T08:37:59.113Z,101505.16
2022-07-31T08:40:24.381Z,101506.69
2022-07-31T08:42:51.751Z,101510.44
2022-07-31T08:45:19.446Z,101514.28
2022-07-31T08:47:57.579Z,101512.22
2022-07-31T08:50:29.815Z,101515.78
2022-07-31T08:53:02.203Z,101518.34
2022-07-31T08:55:56.654Z,101508.16
2022-07-31T08:58:26.063Z,101509.91
2022-07-31T09:00:53.650Z,101507.09
2022-07-31T09:03:21.001Z,101507.72
2022-07-31T09:06:06.237Z,101505.13
2022-07-31T09:08:37.263Z,101499.59
2022-07-31T09:11:12.876Z,101507.69
2022-07-31T09:14:02.436Z,101498.72
2022-07-31T09:16:47.280Z,101498.13
2022-07-31T09:19:51.960Z,101496.59
2022-07-31T09:22:29.157Z,101491.81
2022-07-31T09:25:18.704Z,101496.47
2022-07-31T09:27:47.892Z,101492.78
2022-07-31T09:30:16.770Z,101495.00
2022-07-31T09:33:18.756Z,101488.00
2022-07-31T09:36:08.970Z,101496.09
2022-07-31T09:38:42.770Z,101492.28
2022-07-31T09:42:01.549Z,101483.13
2022-07-31T09:44:25.300Z,101486.81
2022-07-31T09:46:53.392Z,101488.78
2022-07-31T09:49:31.868Z,101492.81
2022-07-31T09:52:01.937Z,101493.03
2022-07-31T09:54:31.435Z,101496.97
2022-07-31T09:56:58.781Z,101492.81
2022-07-31T09:59:29.818Z,101491.09
2022-07-31T10:01:57.294Z,101484.38
2022-07-31T10:04:25.372Z,101495.59
2022-07-31T10:06:53.378Z,101489.84
2022-07-31T10:09:21.993Z,101493.53
2022-07-31T10:11:58.786Z,101500.00
2022-07-31T10:14:35.532Z,101495.13
2022-07-31T10:17:05.722Z,101501.59
2022-07-31T10:19:47.575Z,101500.72
2022-07-31T10:22:40.348Z,101503.28
2022-07-31T10:25:12.918Z,101495.19
2022-07-31T10:27:41.753Z,101480.50
2022-07-31T10:30:13.497Z,101484.34
2022-07-31T10:32:45.296Z,101487.16
2022-07-31T10:36:08.767Z,101484.72
2022-07-31T10:39:17.502Z,101478.22
2022-07-31T10:42:19.868Z,101489.34
2022-07-31T10:44:57.347Z,101481.81
2022-07-31T10:47:55.232Z,101479.09
2022-07-31T10:50:41.129Z,101476.78
2022-07-31T10:53:20.913Z,101475.41
2022-07-31T10:56:13.661Z,101469.19
2022-07-31T10:58:59.130Z,101464.56
2022-07-31T11:01:53.538Z,101449.47
2022-07-31T11:04:39.453Z,101460.09
2022-07-31T11:07:26.508Z,101454.00
2022-07-31T11:10:21.398Z,101450.81
2022-07-31T11:13:07.468Z,101450.44
2022-07-31T11:15:48.120Z,101447.03
2022-07-31T11:18:41.380Z,101444.00
2022-07-31T11:21:36.292Z,101436.66
2022-07-31T11:24:03.253Z,101449.53
2022-07-31T11:26:33.599Z,101437.44
2022-07-31T11:29:58.942Z,101437.22
2022-07-31T11:32:04.762Z,101440.91
2022-07-31T11:34:56.673Z,101436.28
2022-07-31T11:37:31.813Z,101429.25
2022-07-31T11:40:16.066Z,101429.88
2022-07-31T11:42:48.248Z,101420.63
2022-07-31T11:45:23.027Z,101424.59
2022-07-31T11:48:12.915Z,101423.78
2022-07-31T11:50:46.005Z,101428.16
2022-07-31T11:53:13.544Z,101423.59
2022-07-31T11:55:55.922Z,101426.69
2022-07-31T11:58:28.931Z,101420.16
2022-07-31T12:01:00.896Z,101417.13
2022-07-31T12:03:38.979Z,101415.25
2022-07-31T12:06:09.918Z,101413.75
2022-07-31T12:08:39.818Z,101412.03
2022-07-31T12:11:09.468Z,101406.84
2022-07-31T12:13:38.609Z,101401.69
2022-07-31T12:16:10.015Z,101411.50
2022-07-31T12:18:48.653Z,101412.63
2022-07-31T12:21:18.386Z,101409.03
2022-07-31T12:23:54.296Z,101402.19
2022-07-31T12:26:27.127Z,101405.47
2022-07-31T12:29:04.511Z,101406.47
2022-07-31T12:31:48.660Z,101401.28
2022-07-31T12:34:38.336Z,101408.25
2022-07-31T12:37:15.030Z,101411.03
2022-07-31T12:39:59.547Z,101400.41
2022-07-31T12:42:41.633Z,101399.28
2022-07-31T12:45:19.096Z,101402.13
2022-07-31T12:47:52.063Z,101393.84
2022-07-31T12:50:29.092Z,101386.91
2022-07-31T12:53:03.935Z,101394.03
2022-07-31T12:55:33.694Z,101398.13
2022-07-31T12:58:01.291Z,101394.56
2022-07-31T13:00:29.469Z,101393.41
2022-07-31T13:02:58.394Z,101397.31
2022-07-31T13:05:26.447Z,101395.50
2022-07-31T13:07:54.038Z,101378.91
2022-07-31T13:10:24.882Z,101387.97
2022-07-31T13:12:59.364Z,101370.31
2022-07-31T13:15:29.632Z,101368.38
2022-07-31T13:17:59.311Z,101374.22
2022-07-31T13:20:26.415Z,101363.72
2022-07-31T13:22:53.715Z,101370.72
2022-07-31T13:25:20.925Z,101365.03
2022-07-31T13:27:48.023Z,101365.63
2022-07-31T13:30:16.288Z,101358.66
2022-07-31T13:32:43.351Z,101346.69
2022-07-31T13:35:27.881Z,101350.78
2022-07-31T13:37:56.303Z,101354.66
2022-07-31T13:40:44.159Z,101344.38
2022-07-31T13:43:12.644Z,101348.69
2022-07-31T13:45:39.995Z,101351.97
2022-07-31T13:48:09.706Z,101349.84
2022-07-31T13:50:41.839Z,101345.53
2022-07-31T13:53:10.190Z,101346.13
2022-07-31T13:55:37.854Z,101341.72
2022-07-31T13:58:06.020Z,101340.13
2022-07-31T14:00:33.343Z,101342.56
2022-07-31T14:03:00.760Z,101343.69
2022-07-31T14:05:28.096Z,101343.25
2022-07-31T14:07:56.344Z,101346.25
2022-07-31T14:10:44.078Z,101342.13
2022-07-31T14:13:17.401Z,101337.84
2022-07-31T14:15:45.527Z,101329.34
2022-07-31T14:18:13.172Z,101331.66
2022-07-31T14:20:40.625Z,101324.69
2022-07-31T14:23:08.237Z,101315.47
2022-07-31T14:25:40.369Z,101313.91
2022-07-31T14:28:10.100Z,101328.03
2022-07-31T14:30:38.511Z,101317.34
2022-07-31T14:33:05.743Z,101314.22
2022-07-31T14:35:34.946Z,101318.22
2022-07-31T14:38:04.173Z,101323.03
2022-07-31T14:40:31.574Z,101320.63
2022-07-31T14:42:59.398Z,101310.09
2022-07-31T14:45:26.595Z,101311.66
2022-07-31T14:47:55.180Z,101313.06
2022-07-31T14:50:23.866Z,101304.28
2022-07-31T14:52:52.013Z,101311.09
2022-07-31T14:55:24.343Z,101302.81
2022-07-31T14:57:52.117Z,101300.53
2022-07-31T15:00:19.795Z,101312.88
2022-07-31T15:02:49.439Z,101309.72
2022-07-31T15:06:48.852Z,101308.47
2022-07-31T15:08:04.042Z,101327.41
2022-07-31T15:10:31.441Z,101333.38
2022-07-31T15:12:58.558Z,101323.56
2022-07-31T15:15:25.617Z,101315.22
2022-07-31T15:17:56.026Z,101318.25
2022-07-31T15:20:28.814Z,101317.16
2022-07-31T15:23:01.415Z,101318.84
2022-07-31T15:25:29.116Z,101323.53
2022-07-31T15:27:56.575Z,101328.84
2022-07-31T15:30:23.746Z,101343.63
2022-07-31T15:32:53.108Z,101362.91
2022-07-31T15:35:20.269Z,101354.16
2022-07-31T15:37:49.402Z,101351.25
2022-07-31T15:40:17.250Z,101361.28
2022-07-31T15:42:46.147Z,101366.91
2022-07-31T15:45:17.941Z,101370.16
2022-07-31T15:47:47.036Z,101365.84
2022-07-31T15:50:18.740Z,101367.78
2022-07-31T15:52:46.941Z,101371.22
2022-07-31T15:55:14.419Z,101356.72
2022-07-31T15:57:41.584Z,101359.41
2022-07-31T16:00:14.462Z,101352.94
2022-07-31T16:02:43.215Z,101356.13
2022-07-31T16:05:22.149Z,101357.13
2022-07-31T16:08:30.115Z,101350.25
2022-07-31T16:10:54.630Z,101355.41
2022-07-31T16:13:24.206Z,101354.44
2022-07-31T16:15:52.264Z,101358.19
2022-07-31T16:18:19.773Z,101347.69
2022-07-31T16:20:47.592Z,101351.44
2022-07-31T16:23:14.699Z,101347.34
2022-07-31T16:25:43.803Z,101350.66
2022-07-31T16:28:20.999Z,101344.34
2022-07-31T16:30:48.283Z,101344.34
2022-07-31T16:33:15.456Z,101345.38
2022-07-31T16:35:42.901Z,101341.66
2022-07-31T16:38:10.073Z,101337.94
2022-07-31T16:40:37.233Z,101338.47
2022-07-31T16:43:50.956Z,101336.63
2022-07-31T16:45:56.567Z,101342.25
2022-07-31T16:48:24.156Z,101341.19
2022-07-31T16:51:01.444Z,101349.13
2022-07-31T16:54:10.714Z,101343.66
2022-07-31T16:56:17.762Z,101351.75
2022-07-31T16:58:52.626Z,101367.56
2022-07-31T17:01:58.122Z,101359.28
2022-07-31T17:04:08.548Z,101365.34
2022-07-31T17:06:39.335Z,101357.72
2022-07-31T17:09:15.179Z,101354.28
2022-07-31T17:11:53.860Z,101354.28
2022-07-31T17:14:26.422Z,101354.28
2022-07-31T17:16:55.376Z,101361.66
2022-07-31T17:19:42.038Z,101357.75
2022-07-31T17:22:16.145Z,101369.22
2022-07-31T17:24:50.703Z,101373.28
2022-07-31T17:27:20.931Z,101362.09
2022-07-31T17:29:48.745Z,101373.75
2022-07-31T17:32:17.445Z,101362.31
2022-07-31T17:34:46.238Z,101359.81
2022-07-31T17:37:13.635Z,101356.47
2022-07-31T17:39:40.971Z,101368.13
2022-07-31T17:42:09.405Z,101362.69
2022-07-31T17:44:38.011Z,101357.03
2022-07-31T17:47:08.273Z,101364.88
2022-07-31T17:49:36.549Z,101367.44
2022-07-31T17:52:04.436Z,101376.53
2022-07-31T17:54:32.580Z,101373.97
2022-07-31T17:57:00.352Z,101376.00
2022-07-31T17:59:28.735Z,101373.38
2022-07-31T18:02:00.216Z,101378.97
2022-07-31T18:04:31.264Z,101372.63
2022-07-31T18:07:00.242Z,101373.50
2022-07-31T18:09:28.528Z,101367.19
2022-07-31T18:11:56.810Z,101380.47
2022-07-31T18:14:24.986Z,101383.16
2022-07-31T18:16:52.971Z,101376.72
2022-07-31T18:19:23.913Z,101378.44
2022-07-31T18:21:52.378Z,101386.28
2022-07-31T18:24:21.128Z,101387.13
2022-07-31T18:26:49.266Z,101382.66
2022-07-31T18:29:17.893Z,101382.56
2022-07-31T18:31:45.840Z,101385.34
2022-07-31T18:34:14.235Z,101380.75
2022-07-31T18:36:41.515Z,101383.44
2022-07-31T18:39:08.915Z,101386.94
2022-07-31T18:41:37.209Z,101386.94
2022-07-31T18:44:05.918Z,101385.16
2022-07-31T18:46:32.996Z,101380.66
2022-07-31T18:49:00.812Z,101382.47
2022-07-31T18:51:29.363Z,101390.50
2022-07-31T18:53:57.762Z,101394.16
2022-07-31T18:56:26.597Z,101385.34
2022-07-31T18:58:54.711Z,101401.50
2022-07-31T19:01:23.531Z,101395.47
2022-07-31T19:03:51.717Z,101395.19
2022-07-31T19:06:19.810Z,101398.84
2022-07-31T19:08:49.468Z,101403.22
2022-07-31T19:11:16.655Z,101401.50
2022-07-31T19:13:44.381Z,101398.91
2022-07-31T19:16:11.591Z,101406.88
2022-07-31T19:18:40.261Z,101399.78
2022-07-31T19:21:23.638Z,101403.13
2022-07-31T19:23:56.058Z,101406.75
2022-07-31T19:26:23.131Z,101409.44
2022-07-31T19:28:51.172Z,101419.38
2022-07-31T19:31:18.331Z,101418.72
2022-07-31T19:33:45.414Z,101430.78
2022-07-31T19:36:12.491Z,101417.88
2022-07-31T19:38:40.918Z,101428.88
2022-07-31T19:41:07.963Z,101430.09
2022-07-31T19:43:35.749Z,101427.59
2022-07-31T19:46:11.156Z,101429.72
2022-07-31T19:48:42.539Z,101428.94
2022-07-31T19:51:11.661Z,101428.34
2022-07-31T19:53:39.476Z,101437.44
2022-07-31T19:56:06.929Z,101445.69
2022-07-31T19:58:36.858Z,101450.25
2022-07-31T20:01:05.845Z,101441.34
2022-07-31T20:03:33.955Z,101440.69
2022-07-31T20:06:03.634Z,101446.13
2022-07-31T20:08:33.107Z,101443.53
2022-07-31T20:11:04.474Z,101445.34
2022-07-31T20:13:33.684Z,101452.53
2022-07-31T20:16:01.240Z,101450.72
2022-07-31T20:18:29.061Z,101449.09
2022-07-31T20:21:05.022Z,101448.13
2022-07-31T20:23:34.443Z,101449.94
2022-07-31T20:26:02.661Z,101455.09
2022-07-31T20:28:29.779Z,101457.69
2022-07-31T20:30:57.897Z,101455.09
2022-07-31T20:33:25.089Z,101454.22
2022-07-31T20:35:52.372Z,101456.84
2022-07-31T20:38:24.106Z,101458.56
2022-07-31T20:40:55.828Z,101449.66
2022-07-31T20:43:25.793Z,101456.91
2022-07-31T20:45:57.013Z,101460.47
2022-07-31T20:48:31.979Z,101459.56
2022-07-31T20:51:01.906Z,101459.78
2022-07-31T20:53:30.240Z,101458.06
2022-07-31T20:55:58.021Z,101456.41
2022-07-31T20:58:26.210Z,101452.84
2022-07-31T21:00:54.561Z,101457.34
2022-07-31T21:03:21.874Z,101454.84
2022-07-31T21:05:49.369Z,101465.56
2022-07-31T21:08:17.247Z,101463.66
2022-07-31T21:10:45.057Z,101456.69
2022-07-31T21:13:12.264Z,101468.91
2022-07-31T21:15:42.499Z,101461.56
2022-07-31T21:18:17.231Z,101460.72
2022-07-31T21:20:52.965Z,101465.16
2022-07-31T21:23:23.143Z,101468.84
2022-07-31T21:25:52.861Z,101477.63
2022-07-31T21:28:21.591Z,101468.75
2022-07-31T21:30:49.562Z,101471.34
2022-07-31T21:33:18.118Z,101481.97
2022-07-31T21:35:47.087Z,101470.22
2022-07-31T21:38:15.861Z,101470.09
2022-07-31T21:40:44.415Z,101472.94
2022-07-31T21:43:16.770Z,101477.47
2022-07-31T21:45:50.685Z,101476.69
2022-07-31T21:48:25.818Z,101466.09
2022-07-31T21:50:54.610Z,101474.94
2022-07-31T21:53:23.376Z,101474.94
2022-07-31T21:55:51.196Z,101482.13
2022-07-31T21:58:18.689Z,101476.69
2022-07-31T22:00:48.056Z,101473.16
2022-07-31T22:03:15.696Z,101483.91
2022-07-31T22:06:01.541Z,101474.09
2022-07-31T22:08:28.682Z,101491.19
2022-07-31T22:10:55.855Z,101487.72
2022-07-31T22:13:22.939Z,101481.69
2022-07-31T22:15:51.349Z,101484.56
2022-07-31T22:18:30.934Z,101491.53
2022-07-31T22:21:00.004Z,101490.00
2022-07-31T22:23:27.787Z,101484.56
2022-07-31T22:25:55.985Z,101487.13
2022-07-31T22:28:25.058Z,101487.91
2022-07-31T22:30:55.606Z,101492.31
2022-07-31T22:33:23.922Z,101489.63
2022-07-31T22:35:58.268Z,101482.56
2022-07-31T22:38:30.733Z,101487.78
2022-07-31T22:41:01.990Z,101481.59
2022-07-31T22:44:10.289Z,101493.25
2022-07-31T22:46:17.000Z,101493.06
2022-07-31T22:48:47.152Z,101495.81
2022-07-31T22:51:15.393Z,101494.28
2022-07-31T22:53:44.437Z,101488.16
2022-07-31T22:56:16.480Z,101497.91
2022-07-31T22:58:43.631Z,101504.13
2022-07-31T23:01:10.895Z,101496.97
2022-07-31T23:03:37.884Z,101503.09
2022-07-31T23:06:30.987Z,101503.00
2022-07-31T23:08:53.648Z,101509.31
2022-07-31T23:11:24.682Z,101510.25
2022-07-31T23:13:52.714Z,101511.19
2022-07-31T23:16:21.705Z,101517.50
2022-07-31T23:18:50.256Z,101509.47
2022-07-31T23:21:18.790Z,101505.09
2022-07-31T23:23:48.642Z,101519.31
2022-07-31T23:26:23.993Z,101515.59
2022-07-31T23:28:54.330Z,101519.16
2022-07-31T23:31:22.418Z,101518.28
2022-07-31T23:33:50.479Z,101518.38
2022-07-31T23:36:18.130Z,101515.03
2022-07-31T23:38:46.615Z,101512.34
2022-07-31T23:41:14.123Z,101511.66
2022-07-31T23:43:55.269Z,101513.38
2022-07-31T23:46:27.013Z,101499.25
2022-07-31T23:48:55.681Z,101501.13
2022-07-31T23:51:23.339Z,101498.56
2022-07-31T23:53:50.527Z,101500.34
2022-07-31T23:56:19.478Z,101508.38
2022-07-31T23:58:47.220Z,101501.41
